Time;durP1;ratioP1;P1;durP2;ratioP2;P2;SDS_P1;SDS_P2;PMS_P1;PMS_P2;Temp;Humidity;BMP_temperature;BMP_pressure;BME280_temperature;BME280_humidity;BME280_pressure;Samples;Min_cycle;Max_cycle;Signal;HPM_P1;HPM_P2
2023/01/03 19:51:21;;;;;;;;;;;;;;;;;;5515610;23;19945;-74
2023/01/03 19:54:07;;;;;;;;;;;;;;;;;;5005461;28;19921;-77
2023/01/03 19:56:54;;;;;;;;;;;;;;;;;;5012951;28;19913;-77
2023/01/03 19:59:40;;;;;;;;;;;;;;;;;;4986265;28;20163;-78
2023/01/03 20:02:27;;;;;;;;;;;;;;;;;;4997740;28;19913;-77
2023/01/03 20:05:14;;;;;;;;;;;;;;;;;;5014867;28;19913;-76
2023/01/03 20:08:00;;;;;;;;;;;;;;;;;;5006634;28;19913;-76
2023/01/03 20:10:47;;;;;;;;;;;;;;;;;;5008496;28;19914;-78
2023/01/03 20:13:33;;;;;;;;;;;;;;;;;;4999164;28;19914;-80
2023/01/03 20:16:22;;;;;;;;;;;;;;;;;;4999797;28;19932;-80
2023/01/03 20:19:08;;;;;;;;;;;;;;;;;;4994555;28;20333;-78
2023/01/03 20:21:55;;;;;;;;;;;;;;;;;;5017780;28;19924;-78
2023/01/03 20:24:41;;;;;;;;;;;;;;;;;;5009748;28;20320;-76
2023/01/03 20:27:28;;;;;;;;;;;;;;;;;;5006057;28;19917;-78
2023/01/03 20:30:14;;;;;;;;;;;;;;;;;;5010206;28;19935;-79
2023/01/03 20:33:01;;;;;;;;;;;;;;;;;;5008704;28;20288;-74
2023/01/03 20:35:47;;;;;;;;;;;;;;;;;;5007726;28;19921;-75
2023/01/03 20:38:34;;;;;;;;;;;;;;;;;;5003684;28;20273;-75
2023/01/03 20:41:20;;;;;;;;;;;;;;;;;;5018652;28;19918;-75
2023/01/03 20:44:07;;;;;;;;;;;;;;;;;;5009874;28;19920;-75
2023/01/03 20:46:53;;;;;;;;;;;;;;;;;;5013431;28;19920;-75
2023/01/03 20:49:40;;;;;;;;;;;;;;;;;;5003281;28;20400;-77
2023/01/03 20:52:26;;;;;;;;;;;;;;;;;;5005313;28;20403;-75
2023/01/03 20:55:13;;;;;;;;;;;;;;;;;;5005223;28;19921;-74
2023/01/03 20:57:59;;;;;;;;;;;;;;;;;;5004883;28;19913;-76
2023/01/03 21:00:46;;;;;;;;;;;;;;;;;;5006429;28;19932;-80
2023/01/03 21:03:32;;;;;;;;;;;;;;;;;;5004208;28;19921;-76
2023/01/03 21:06:19;;;;;;;;;;;;;;;;;;4995434;28;21673;-74
2023/01/03 21:09:05;;;;;;;;;;;;;;;;;;4998716;28;19913;-75
2023/01/03 21:11:52;;;;;;;;;;;;;;;;;;5000078;28;19909;-75
2023/01/03 21:14:38;;;;;;;;;;;;;;;;;;5001376;28;20266;-75
2023/01/03 21:17:25;;;;;;;;;;;;;;;;;;5000885;28;19924;-75
2023/01/03 21:20:11;;;;;;;;;;;;;;;;;;5003619;28;19917;-74
2023/01/03 21:22:58;;;;;;;;;;;;;;;;;;5004009;28;19924;-75
2023/01/03 21:25:45;;;;;;;;;;;;;;;;;;5002770;28;19909;-75
2023/01/03 21:28:31;;;;;;;;;;;;;;;;;;5003184;28;19920;-75
2023/01/03 21:31:17;;;;;;;;;;;;;;;;;;5000731;28;19918;-75
2023/01/03 21:34:04;;;;;;;;;;;;;;;;;;5003556;28;19923;-75
2023/01/03 21:36:50;;;;;;;;;;;;;;;;;;4988455;28;19925;-75
2023/01/03 21:39:37;;;;;;;;;;;;;;;;;;5009274;28;19922;-76
2023/01/03 21:45:29;;;;;;;;;;;;;;;;;;5012561;28;19913;-76
2023/01/03 21:48:15;;;;;;;;;;;;;;;;;;5006153;28;19928;-76
2023/01/03 21:51:02;;;;;;;;;;;;;;;;;;5013446;28;20506;-76
2023/01/03 21:53:50;;;;;;;;;;;;;;;;;;5013475;28;19963;-75
2023/01/03 21:56:43;;;;;;;;;;;;;;;;;;5012595;28;19932;-75
2023/01/03 21:59:30;;;;;;;;;;;;;;;;;;5008522;28;19910;-76
2023/01/03 22:05:22;;;;;;;;;;;;;;;;;;5010850;28;20400;-76
2023/01/03 22:08:09;;;;;;;;;;;;;;;;;;5018053;28;19920;-76
2023/01/03 22:10:56;;;;;;;;;;;;;;;;;;5017303;28;20422;-76
2023/01/03 22:13:42;;;;;;;;;;;;;;;;;;5008996;28;20469;-78
2023/01/03 22:16:29;;;;;;;;;;;;;;;;;;5008083;28;19932;-77
2023/01/03 22:19:15;;;;;;;;;;;;;;;;;;5017862;28;19910;-75
2023/01/03 22:22:02;;;;;;;;;;;;;;;;;;5003502;28;19921;-77
2023/01/03 22:24:51;;;;;;;;;;;;;;;;;;5021561;28;19917;-76
2023/01/03 22:27:37;;;;;;;;;;;;;;;;;;5019269;28;19920;-77
2023/01/03 22:30:24;;;;;;;;;;;;;;;;;;5002568;28;20396;-76
2023/01/03 22:33:10;;;;;;;;;;;;;;;;;;5002963;28;19913;-82
2023/01/03 22:35:57;;;;;;;;;;;;;;;;;;4991348;28;19921;-80
2023/01/03 22:38:43;;;;;;;;;;;;;;;;;;5013294;28;20474;-79
2023/01/03 22:41:30;;;;;;;;;;;;;;;;;;5008070;28;19925;-80
2023/01/03 22:44:16;;;;;;;;;;;;;;;;;;5009731;28;19914;-80
2023/01/03 22:47:03;;;;;;;;;;;;;;;;;;5002017;28;19914;-79
2023/01/03 22:49:50;;;;;;;;;;;;;;;;;;5003791;28;19928;-80
2023/01/03 22:52:36;;;;;;;;;;;;;;;;;;5006045;28;19925;-79
2023/01/03 22:55:22;;;;;;;;;;;;;;;;;;5000722;28;19924;-79
2023/01/03 22:58:09;;;;;;;;;;;;;;;;;;4989062;28;19921;-81
2023/01/03 23:00:56;;;;;;;;;;;;;;;;;;5004691;28;19919;-81
2023/01/03 23:03:42;;;;;;;;;;;;;;;;;;5005580;28;19922;-80
2023/01/03 23:06:29;;;;;;;;;;;;;;;;;;4992990;28;19917;-79
2023/01/03 23:09:15;;;;;;;;;;;;;;;;;;5009060;28;19919;-79
2023/01/03 23:15:07;;;;;;;;;;;;;;;;;;5007136;28;19921;-81
2023/01/03 23:17:56;;;;;;;;;;;;;;;;;;5013750;28;19915;-78
2023/01/03 23:20:47;;;;;;;;;;;;;;;;;;5010580;28;19916;-81
2023/01/03 23:23:34;;;;;;;;;;;;;;;;;;5011953;28;19920;-79
2023/01/03 23:26:20;;;;;;;;;;;;;;;;;;5010115;28;19921;-77
2023/01/03 23:29:07;;;;;;;;;;;;;;;;;;5008086;28;19914;-80
2023/01/03 23:31:53;;;;;;;;;;;;;;;;;;5007774;28;19910;-78
2023/01/03 23:34:40;;;;;;;;;;;;;;;;;;5005855;28;19913;-82
2023/01/03 23:37:26;;;;;;;;;;;;;;;;;;4993965;28;20285;-81
2023/01/03 23:40:13;;;;;;;;;;;;;;;;;;5006917;28;20352;-82
2023/01/03 23:42:59;;;;;;;;;;;;;;;;;;5001430;28;20396;-81
2023/01/03 23:45:46;;;;;;;;;;;;;;;;;;5007351;28;19938;-79
2023/01/03 23:48:32;;;;;;;;;;;;;;;;;;5005209;28;19940;-82
2023/01/03 23:51:18;;;;;;;;;;;;;;;;;;5009028;28;19926;-79
2023/01/03 23:54:05;;;;;;;;;;;;;;;;;;4991465;28;19924;-79
2023/01/03 23:56:52;;;;;;;;;;;;;;;;;;5002656;28;19921;-78
2023/01/03 23:59:38;;;;;;;;;;;;;;;;;;5008179;28;19921;-79
